Main page
METAR-TAF:

METAR-TAF

Airports :

Turin Airport

Turin, Italy

latitude: 45-13N, longitude: 007-39E, elevation: 301 m

Current weather observation

The report was made 15 minutes ago, at 16:50 UTC
Wind 6 kt from the Northeast
Temperature 30°C
Humidity 43%
Pressure 1012 hPa
Visibility 10 km or more
no clouds below 1500 m and no cumulonimbus

METAR: LIMF 191650Z 05006KT CAVOK 30/16 Q1012

Time: 19:05 (17:05 UTC)

Forecast

The report was made 6 hours and 5 minutes ago, at 11:00 UTC
Forecast valid from 19 at 12 UTC to 20 at 12 UTC
Wind 5 kt from variable directions
Visibility 10 km or more
no clouds below 1500 m and no cumulonimbus
Probability 30% :
Temporary
from 19 at 16 UTC to 19 at 20 UTC
Visibility: 4000 m
thunderstorm, rain

TAF: LIMF 191100Z 1912/2012 VRB05KT CAVOK PROB30 TEMPO 1916/1920 4000 TSRA

Weather observations and forecasts of more than 4000 airports (METAR and TAF reports).

The available stations are represented by yellow and red dots on the map.

Hover mouse over dot to see the name of the station.

Then click to see weather observations and forecasts.

To change the map : click on the green buttons with a black cross to zoom in, on the green button with a dash to zoom out, or on the green arrows for adjacent maps.


METAR-TAF: